sensor_id;sensor_type;location;lat;lon;timestamp;temperature;humidity
36444;DHT22;24692;45.642;13.806;2023-01-10T00:01:34;8.40;99.90
36444;DHT22;24692;45.642;13.806;2023-01-10T00:04:00;8.30;99.90
36444;DHT22;24692;45.642;13.806;2023-01-10T00:06:26;8.40;99.90
36444;DHT22;24692;45.642;13.806;2023-01-10T00:08:51;8.40;99.90
36444;DHT22;24692;45.642;13.806;2023-01-10T00:11:17;8.50;99.90
36444;DHT22;24692;45.642;13.806;2023-01-10T00:14:01;8.40;99.90
36444;DHT22;24692;45.642;13.806;2023-01-10T00:16:27;8.50;99.90
36444;DHT22;24692;45.642;13.806;2023-01-10T00:18:52;8.50;99.90
36444;DHT22;24692;45.642;13.806;2023-01-10T00:21:18;8.50;99.90
36444;DHT22;24692;45.642;13.806;2023-01-10T00:23:44;8.50;99.90
36444;DHT22;24692;45.642;13.806;2023-01-10T00:26:10;8.50;99.90
36444;DHT22;24692;45.642;13.806;2023-01-10T00:28:36;8.60;99.90
36444;DHT22;24692;45.642;13.806;2023-01-10T00:31:04;8.60;99.90
36444;DHT22;24692;45.642;13.806;2023-01-10T00:33:34;8.60;99.90
36444;DHT22;24692;45.642;13.806;2023-01-10T00:36:02;8.60;99.90
36444;DHT22;24692;45.642;13.806;2023-01-10T00:38:29;8.60;99.90
36444;DHT22;24692;45.642;13.806;2023-01-10T00:40:55;8.50;99.90
36444;DHT22;24692;45.642;13.806;2023-01-10T00:43:21;8.50;99.90
36444;DHT22;24692;45.642;13.806;2023-01-10T00:46:07;8.60;99.90
36444;DHT22;24692;45.642;13.806;2023-01-10T00:48:32;8.60;99.90
36444;DHT22;24692;45.642;13.806;2023-01-10T00:50:58;8.70;99.90
36444;DHT22;24692;45.642;13.806;2023-01-10T00:53:24;8.60;99.90
36444;DHT22;24692;45.642;13.806;2023-01-10T00:55:49;8.70;99.90
36444;DHT22;24692;45.642;13.806;2023-01-10T00:58:16;8.80;99.90
36444;DHT22;24692;45.642;13.806;2023-01-10T01:00:43;8.80;99.90
36444;DHT22;24692;45.642;13.806;2023-01-10T01:03:14;8.80;99.90
36444;DHT22;24692;45.642;13.806;2023-01-10T01:05:43;8.80;99.90
36444;DHT22;24692;45.642;13.806;2023-01-10T01:08:11;8.80;99.90
36444;DHT22;24692;45.642;13.806;2023-01-10T01:10:36;8.70;99.90
36444;DHT22;24692;45.642;13.806;2023-01-10T01:13:14;8.90;99.90
36444;DHT22;24692;45.642;13.806;2023-01-10T01:15:40;8.90;99.90
36444;DHT22;24692;45.642;13.806;2023-01-10T01:18:06;9.00;99.90
36444;DHT22;24692;45.642;13.806;2023-01-10T01:20:33;9.00;99.90
36444;DHT22;24692;45.642;13.806;2023-01-10T01:22:58;9.00;99.90
36444;DHT22;24692;45.642;13.806;2023-01-10T01:25:25;8.80;99.90
36444;DHT22;24692;45.642;13.806;2023-01-10T01:27:51;8.80;99.90
36444;DHT22;24692;45.642;13.806;2023-01-10T01:30:17;8.80;99.90
36444;DHT22;24692;45.642;13.806;2023-01-10T01:32:43;8.70;99.90
36444;DHT22;24692;45.642;13.806;2023-01-10T01:35:12;8.80;99.90
36444;DHT22;24692;45.642;13.806;2023-01-10T01:37:40;8.80;99.90
36444;DHT22;24692;45.642;13.806;2023-01-10T01:40:07;8.80;99.90
36444;DHT22;24692;45.642;13.806;2023-01-10T01:42:34;8.80;99.90
36444;DHT22;24692;45.642;13.806;2023-01-10T01:48:40;8.70;99.90
36444;DHT22;24692;45.642;13.806;2023-01-10T01:50:43;8.80;99.90
36444;DHT22;24692;45.642;13.806;2023-01-10T01:53:26;8.90;99.90
36444;DHT22;24692;45.642;13.806;2023-01-10T01:55:56;8.90;99.90
36444;DHT22;24692;45.642;13.806;2023-01-10T01:58:29;8.90;99.90
36444;DHT22;24692;45.642;13.806;2023-01-10T02:00:56;8.90;99.90
36444;DHT22;24692;45.642;13.806;2023-01-10T02:03:23;8.80;99.90
36444;DHT22;24692;45.642;13.806;2023-01-10T02:05:49;8.60;99.90
36444;DHT22;24692;45.642;13.806;2023-01-10T02:08:15;8.60;99.90
36444;DHT22;24692;45.642;13.806;2023-01-10T02:10:51;8.60;99.90
36444;DHT22;24692;45.642;13.806;2023-01-10T02:13:21;8.60;99.90
36444;DHT22;24692;45.642;13.806;2023-01-10T02:15:48;8.50;99.90
36444;DHT22;24692;45.642;13.806;2023-01-10T02:18:14;8.70;99.90
36444;DHT22;24692;45.642;13.806;2023-01-10T02:34:21;8.80;99.90
36444;DHT22;24692;45.642;13.806;2023-01-10T02:37:07;8.70;99.90
36444;DHT22;24692;45.642;13.806;2023-01-10T02:39:48;8.70;99.90
36444;DHT22;24692;45.642;13.806;2023-01-10T02:45:17;8.70;99.90
36444;DHT22;24692;45.642;13.806;2023-01-10T02:47:43;8.60;99.90
36444;DHT22;24692;45.642;13.806;2023-01-10T02:50:32;8.40;99.90
36444;DHT22;24692;45.642;13.806;2023-01-10T02:53:04;8.40;99.90
36444;DHT22;24692;45.642;13.806;2023-01-10T02:58:38;8.20;99.90
36444;DHT22;24692;45.642;13.806;2023-01-10T03:01:36;8.30;99.90
36444;DHT22;24692;45.642;13.806;2023-01-10T03:06:47;8.10;99.90
36444;DHT22;24692;45.642;13.806;2023-01-10T03:09:30;8.10;99.90
36444;DHT22;24692;45.642;13.806;2023-01-10T03:12:22;8.10;99.90
36444;DHT22;24692;45.642;13.806;2023-01-10T03:14:49;8.10;99.90
36444;DHT22;24692;45.642;13.806;2023-01-10T03:17:16;8.20;99.90
36444;DHT22;24692;45.642;13.806;2023-01-10T03:19:51;8.20;99.90
36444;DHT22;24692;45.642;13.806;2023-01-10T03:22:19;8.30;99.90
36444;DHT22;24692;45.642;13.806;2023-01-10T03:24:48;8.30;99.90
36444;DHT22;24692;45.642;13.806;2023-01-10T03:27:51;8.20;99.90
36444;DHT22;24692;45.642;13.806;2023-01-10T03:33:02;8.30;99.90
36444;DHT22;24692;45.642;13.806;2023-01-10T03:41:16;8.30;99.90
36444;DHT22;24692;45.642;13.806;2023-01-10T03:43:53;8.30;99.90
36444;DHT22;24692;45.642;13.806;2023-01-10T03:46:50;8.40;99.90
36444;DHT22;24692;45.642;13.806;2023-01-10T03:49:17;8.40;99.90
36444;DHT22;24692;45.642;13.806;2023-01-10T03:51:45;8.30;99.90
36444;DHT22;24692;45.642;13.806;2023-01-10T03:54:14;8.40;99.90
36444;DHT22;24692;45.642;13.806;2023-01-10T03:56:45;8.30;99.90
36444;DHT22;24692;45.642;13.806;2023-01-10T03:59:12;8.40;99.90
36444;DHT22;24692;45.642;13.806;2023-01-10T04:01:37;8.40;99.90
36444;DHT22;24692;45.642;13.806;2023-01-10T04:04:03;8.30;99.90
36444;DHT22;24692;45.642;13.806;2023-01-10T04:06:29;8.20;99.90
36444;DHT22;24692;45.642;13.806;2023-01-10T04:08:55;8.10;99.90
36444;DHT22;24692;45.642;13.806;2023-01-10T04:11:20;8.20;99.90
36444;DHT22;24692;45.642;13.806;2023-01-10T04:13:46;8.30;99.90
36444;DHT22;24692;45.642;13.806;2023-01-10T04:16:13;8.30;99.90
36444;DHT22;24692;45.642;13.806;2023-01-10T04:18:38;8.40;99.90
36444;DHT22;24692;45.642;13.806;2023-01-10T04:21:04;8.50;99.90
36444;DHT22;24692;45.642;13.806;2023-01-10T04:23:31;8.50;99.90
36444;DHT22;24692;45.642;13.806;2023-01-10T04:25:57;8.50;99.90
36444;DHT22;24692;45.642;13.806;2023-01-10T04:28:22;8.50;99.90
36444;DHT22;24692;45.642;13.806;2023-01-10T04:30:48;8.50;99.90
36444;DHT22;24692;45.642;13.806;2023-01-10T04:33:13;8.50;99.90
36444;DHT22;24692;45.642;13.806;2023-01-10T04:35:39;8.50;99.90
36444;DHT22;24692;45.642;13.806;2023-01-10T04:38:05;8.50;99.90
36444;DHT22;24692;45.642;13.806;2023-01-10T04:40:30;8.50;99.90
36444;DHT22;24692;45.642;13.806;2023-01-10T04:42:56;8.60;99.90
36444;DHT22;24692;45.642;13.806;2023-01-10T04:45:22;8.60;99.90
36444;DHT22;24692;45.642;13.806;2023-01-10T04:47:49;8.60;99.90
36444;DHT22;24692;45.642;13.806;2023-01-10T04:50:15;8.70;99.90
36444;DHT22;24692;45.642;13.806;2023-01-10T04:52:41;8.70;99.90
36444;DHT22;24692;45.642;13.806;2023-01-10T04:55:08;8.70;99.90
36444;DHT22;24692;45.642;13.806;2023-01-10T04:57:34;8.70;99.90
36444;DHT22;24692;45.642;13.806;2023-01-10T05:00:00;8.70;99.90
36444;DHT22;24692;45.642;13.806;2023-01-10T05:02:25;8.80;99.90
36444;DHT22;24692;45.642;13.806;2023-01-10T05:04:51;8.80;99.90
36444;DHT22;24692;45.642;13.806;2023-01-10T05:07:16;8.70;99.90
36444;DHT22;24692;45.642;13.806;2023-01-10T05:09:42;8.70;99.90
36444;DHT22;24692;45.642;13.806;2023-01-10T05:12:08;8.80;99.90
36444;DHT22;24692;45.642;13.806;2023-01-10T05:14:34;8.80;99.90
36444;DHT22;24692;45.642;13.806;2023-01-10T05:16:59;8.80;99.90
36444;DHT22;24692;45.642;13.806;2023-01-10T05:19:25;8.80;99.90
36444;DHT22;24692;45.642;13.806;2023-01-10T05:21:50;8.80;99.90
36444;DHT22;24692;45.642;13.806;2023-01-10T05:24:17;8.80;99.90
36444;DHT22;24692;45.642;13.806;2023-01-10T05:26:42;8.70;99.90
36444;DHT22;24692;45.642;13.806;2023-01-10T05:29:11;8.70;99.90
36444;DHT22;24692;45.642;13.806;2023-01-10T05:31:39;8.60;99.90
36444;DHT22;24692;45.642;13.806;2023-01-10T05:34:04;8.60;99.90
36444;DHT22;24692;45.642;13.806;2023-01-10T05:36:31;8.70;99.90
36444;DHT22;24692;45.642;13.806;2023-01-10T05:38:56;8.70;99.90
36444;DHT22;24692;45.642;13.806;2023-01-10T05:41:22;8.80;99.90
36444;DHT22;24692;45.642;13.806;2023-01-10T05:43:48;8.80;99.90
36444;DHT22;24692;45.642;13.806;2023-01-10T05:46:14;8.70;99.90
36444;DHT22;24692;45.642;13.806;2023-01-10T05:48:40;8.70;99.90
36444;DHT22;24692;45.642;13.806;2023-01-10T05:51:06;8.70;99.90
36444;DHT22;24692;45.642;13.806;2023-01-10T05:53:32;8.60;99.90
36444;DHT22;24692;45.642;13.806;2023-01-10T05:55:59;8.60;99.90
36444;DHT22;24692;45.642;13.806;2023-01-10T05:58:27;8.60;99.90
36444;DHT22;24692;45.642;13.806;2023-01-10T06:00:54;8.70;99.90
36444;DHT22;24692;45.642;13.806;2023-01-10T06:03:20;8.60;99.90
36444;DHT22;24692;45.642;13.806;2023-01-10T06:05:46;8.60;99.90
36444;DHT22;24692;45.642;13.806;2023-01-10T06:08:12;8.50;99.90
36444;DHT22;24692;45.642;13.806;2023-01-10T06:10:37;8.60;99.90
36444;DHT22;24692;45.642;13.806;2023-01-10T06:13:03;8.60;99.90
36444;DHT22;24692;45.642;13.806;2023-01-10T06:15:34;8.50;99.90
36444;DHT22;24692;45.642;13.806;2023-01-10T06:18:00;8.50;99.90
36444;DHT22;24692;45.642;13.806;2023-01-10T06:20:26;8.60;99.90
36444;DHT22;24692;45.642;13.806;2023-01-10T06:22:52;8.60;99.90
36444;DHT22;24692;45.642;13.806;2023-01-10T06:25:18;8.60;99.90
36444;DHT22;24692;45.642;13.806;2023-01-10T06:27:44;8.60;99.90
36444;DHT22;24692;45.642;13.806;2023-01-10T06:30:12;8.60;99.90
36444;DHT22;24692;45.642;13.806;2023-01-10T06:32:38;8.60;99.90
36444;DHT22;24692;45.642;13.806;2023-01-10T06:35:05;8.60;99.90
36444;DHT22;24692;45.642;13.806;2023-01-10T06:37:31;8.60;99.90
36444;DHT22;24692;45.642;13.806;2023-01-10T06:39:56;8.60;99.90
36444;DHT22;24692;45.642;13.806;2023-01-10T06:42:22;8.50;99.90
36444;DHT22;24692;45.642;13.806;2023-01-10T06:44:48;8.60;99.90
36444;DHT22;24692;45.642;13.806;2023-01-10T06:47:13;8.50;99.90
36444;DHT22;24692;45.642;13.806;2023-01-10T06:49:39;8.60;99.90
36444;DHT22;24692;45.642;13.806;2023-01-10T06:52:04;8.70;99.90
36444;DHT22;24692;45.642;13.806;2023-01-10T06:54:30;8.90;99.90
36444;DHT22;24692;45.642;13.806;2023-01-10T06:56:56;9.10;99.90
36444;DHT22;24692;45.642;13.806;2023-01-10T06:59:22;9.10;99.90
36444;DHT22;24692;45.642;13.806;2023-01-10T07:01:47;9.10;99.90
36444;DHT22;24692;45.642;13.806;2023-01-10T07:04:13;9.00;99.90
36444;DHT22;24692;45.642;13.806;2023-01-10T07:06:39;9.20;99.90
36444;DHT22;24692;45.642;13.806;2023-01-10T07:09:06;9.40;99.90
36444;DHT22;24692;45.642;13.806;2023-01-10T07:11:33;9.20;99.90
36444;DHT22;24692;45.642;13.806;2023-01-10T07:14:02;9.20;99.90
36444;DHT22;24692;45.642;13.806;2023-01-10T07:16:27;9.10;99.90
36444;DHT22;24692;45.642;13.806;2023-01-10T07:18:53;9.10;99.90
36444;DHT22;24692;45.642;13.806;2023-01-10T07:21:19;8.90;99.90
36444;DHT22;24692;45.642;13.806;2023-01-10T07:23:48;8.80;99.90
36444;DHT22;24692;45.642;13.806;2023-01-10T07:26:17;8.80;99.90
36444;DHT22;24692;45.642;13.806;2023-01-10T07:28:50;9.00;99.90
36444;DHT22;24692;45.642;13.806;2023-01-10T07:31:17;9.30;99.90
36444;DHT22;24692;45.642;13.806;2023-01-10T07:33:43;9.20;99.90
36444;DHT22;24692;45.642;13.806;2023-01-10T07:36:09;9.40;99.90
36444;DHT22;24692;45.642;13.806;2023-01-10T07:38:34;9.70;99.90
36444;DHT22;24692;45.642;13.806;2023-01-10T07:41:01;9.80;99.90
36444;DHT22;24692;45.642;13.806;2023-01-10T07:43:28;10.40;99.90
36444;DHT22;24692;45.642;13.806;2023-01-10T07:45:56;10.70;99.90
36444;DHT22;24692;45.642;13.806;2023-01-10T07:48:22;10.40;99.90
36444;DHT22;24692;45.642;13.806;2023-01-10T07:50:47;10.70;99.90
36444;DHT22;24692;45.642;13.806;2023-01-10T07:53:13;10.80;99.90
36444;DHT22;24692;45.642;13.806;2023-01-10T07:55:39;10.70;99.90
36444;DHT22;24692;45.642;13.806;2023-01-10T07:58:05;11.10;99.90
36444;DHT22;24692;45.642;13.806;2023-01-10T08:00:33;11.70;99.90
36444;DHT22;24692;45.642;13.806;2023-01-10T08:02:59;12.20;99.90
36444;DHT22;24692;45.642;13.806;2023-01-10T08:05:25;12.80;99.90
36444;DHT22;24692;45.642;13.806;2023-01-10T08:07:50;13.10;99.90
36444;DHT22;24692;45.642;13.806;2023-01-10T08:10:17;13.60;99.90
36444;DHT22;24692;45.642;13.806;2023-01-10T08:12:42;14.20;99.90
36444;DHT22;24692;45.642;13.806;2023-01-10T08:15:08;14.90;99.90
36444;DHT22;24692;45.642;13.806;2023-01-10T08:17:35;15.50;99.90
36444;DHT22;24692;45.642;13.806;2023-01-10T08:20:01;16.00;99.90
36444;DHT22;24692;45.642;13.806;2023-01-10T08:22:27;16.60;99.90
36444;DHT22;24692;45.642;13.806;2023-01-10T08:24:53;16.90;99.90
36444;DHT22;24692;45.642;13.806;2023-01-10T08:27:19;17.40;99.90
36444;DHT22;24692;45.642;13.806;2023-01-10T08:29:45;18.70;99.90
36444;DHT22;24692;45.642;13.806;2023-01-10T08:32:10;19.60;99.90
36444;DHT22;24692;45.642;13.806;2023-01-10T08:34:36;19.90;99.90
36444;DHT22;24692;45.642;13.806;2023-01-10T08:37:02;19.80;99.90
36444;DHT22;24692;45.642;13.806;2023-01-10T08:39:28;19.80;99.90
36444;DHT22;24692;45.642;13.806;2023-01-10T08:41:55;20.40;99.90
36444;DHT22;24692;45.642;13.806;2023-01-10T08:44:21;20.70;99.90
36444;DHT22;24692;45.642;13.806;2023-01-10T08:46:46;21.30;99.90
36444;DHT22;24692;45.642;13.806;2023-01-10T08:49:12;21.60;99.90
36444;DHT22;24692;45.642;13.806;2023-01-10T08:51:38;21.50;99.90
36444;DHT22;24692;45.642;13.806;2023-01-10T08:54:04;21.80;99.90
36444;DHT22;24692;45.642;13.806;2023-01-10T08:56:31;22.40;99.90
36444;DHT22;24692;45.642;13.806;2023-01-10T08:58:56;22.90;99.90
36444;DHT22;24692;45.642;13.806;2023-01-10T09:01:22;22.50;99.90
36444;DHT22;24692;45.642;13.806;2023-01-10T09:03:48;22.40;99.90
36444;DHT22;24692;45.642;13.806;2023-01-10T09:06:16;22.20;99.90
36444;DHT22;24692;45.642;13.806;2023-01-10T09:08:41;22.00;99.90
36444;DHT22;24692;45.642;13.806;2023-01-10T09:11:07;22.40;99.90
36444;DHT22;24692;45.642;13.806;2023-01-10T09:13:34;22.50;99.90
36444;DHT22;24692;45.642;13.806;2023-01-10T09:16:04;23.10;99.90
36444;DHT22;24692;45.642;13.806;2023-01-10T09:18:33;23.20;99.90
36444;DHT22;24692;45.642;13.806;2023-01-10T09:20:59;23.30;99.90
36444;DHT22;24692;45.642;13.806;2023-01-10T09:23:25;24.00;99.90
36444;DHT22;24692;45.642;13.806;2023-01-10T09:25:54;24.70;99.90
36444;DHT22;24692;45.642;13.806;2023-01-10T09:28:40;24.90;99.90
36444;DHT22;24692;45.642;13.806;2023-01-10T09:31:06;24.30;99.90
36444;DHT22;24692;45.642;13.806;2023-01-10T09:33:33;23.90;99.90
36444;DHT22;24692;45.642;13.806;2023-01-10T09:35:59;24.30;99.90
36444;DHT22;24692;45.642;13.806;2023-01-10T09:38:25;23.60;99.90
36444;DHT22;24692;45.642;13.806;2023-01-10T09:52:28;23.80;99.90
36444;DHT22;24692;45.642;13.806;2023-01-10T09:54:56;24.30;99.90
36444;DHT22;24692;45.642;13.806;2023-01-10T09:57:24;24.40;99.90
36444;DHT22;24692;45.642;13.806;2023-01-10T09:59:51;24.30;99.90
36444;DHT22;24692;45.642;13.806;2023-01-10T10:02:36;24.20;99.90
36444;DHT22;24692;45.642;13.806;2023-01-10T10:05:27;24.90;99.90
36444;DHT22;24692;45.642;13.806;2023-01-10T10:07:59;23.90;99.90
36444;DHT22;24692;45.642;13.806;2023-01-10T10:16:25;23.10;99.90
36444;DHT22;24692;45.642;13.806;2023-01-10T10:19:01;23.00;99.90
36444;DHT22;24692;45.642;13.806;2023-01-10T10:27:46;22.40;99.90
36444;DHT22;24692;45.642;13.806;2023-01-10T10:30:44;22.20;99.90
36444;DHT22;24692;45.642;13.806;2023-01-10T10:34:22;22.40;99.90
36444;DHT22;24692;45.642;13.806;2023-01-10T10:36:48;23.50;99.90
36444;DHT22;24692;45.642;13.806;2023-01-10T10:39:23;23.10;99.90
36444;DHT22;24692;45.642;13.806;2023-01-10T10:41:52;23.00;99.90
36444;DHT22;24692;45.642;13.806;2023-01-10T10:44:35;23.10;99.90
36444;DHT22;24692;45.642;13.806;2023-01-10T10:47:16;22.70;99.90
36444;DHT22;24692;45.642;13.806;2023-01-10T10:49:54;22.80;99.90
36444;DHT22;24692;45.642;13.806;2023-01-10T10:52:28;22.50;99.90
36444;DHT22;24692;45.642;13.806;2023-01-10T10:54:57;23.20;99.90
36444;DHT22;24692;45.642;13.806;2023-01-10T10:57:28;23.80;99.90
36444;DHT22;24692;45.642;13.806;2023-01-10T10:59:55;24.10;99.90
36444;DHT22;24692;45.642;13.806;2023-01-10T11:04:57;23.80;99.90
36444;DHT22;24692;45.642;13.806;2023-01-10T11:07:24;24.20;99.90
36444;DHT22;24692;45.642;13.806;2023-01-10T11:09:53;23.00;99.90
36444;DHT22;24692;45.642;13.806;2023-01-10T11:12:20;21.70;99.90
36444;DHT22;24692;45.642;13.806;2023-01-10T11:14:50;21.40;99.90
36444;DHT22;24692;45.642;13.806;2023-01-10T11:17:18;21.40;99.90
36444;DHT22;24692;45.642;13.806;2023-01-10T11:20:14;20.50;99.90
36444;DHT22;24692;45.642;13.806;2023-01-10T11:22:49;20.80;99.90
36444;DHT22;24692;45.642;13.806;2023-01-10T11:25:17;21.00;99.90
36444;DHT22;24692;45.642;13.806;2023-01-10T11:27:52;21.40;99.90
36444;DHT22;24692;45.642;13.806;2023-01-10T11:30:32;21.90;99.90
36444;DHT22;24692;45.642;13.806;2023-01-10T11:33:04;21.30;99.90
36444;DHT22;24692;45.642;13.806;2023-01-10T11:35:36;22.20;99.90
36444;DHT22;24692;45.642;13.806;2023-01-10T11:38:20;22.40;99.90
36444;DHT22;24692;45.642;13.806;2023-01-10T11:40:56;22.20;99.90
36444;DHT22;24692;45.642;13.806;2023-01-10T11:43:33;22.30;99.90
36444;DHT22;24692;45.642;13.806;2023-01-10T11:46:23;22.50;99.90
36444;DHT22;24692;45.642;13.806;2023-01-10T11:49:00;22.40;99.90
36444;DHT22;24692;45.642;13.806;2023-01-10T11:51:37;22.60;99.90
36444;DHT22;24692;45.642;13.806;2023-01-10T11:54:10;23.10;99.90
36444;DHT22;24692;45.642;13.806;2023-01-10T11:56:38;23.50;99.90
36444;DHT22;24692;45.642;13.806;2023-01-10T11:59:13;23.90;99.90
36444;DHT22;24692;45.642;13.806;2023-01-10T12:01:46;23.80;99.90
36444;DHT22;24692;45.642;13.806;2023-01-10T12:04:16;23.10;99.90
36444;DHT22;24692;45.642;13.806;2023-01-10T12:06:47;22.70;99.90
36444;DHT22;24692;45.642;13.806;2023-01-10T12:12:26;23.40;99.90
36444;DHT22;24692;45.642;13.806;2023-01-10T12:14:57;22.80;99.90
36444;DHT22;24692;45.642;13.806;2023-01-10T12:17:34;24.10;99.90
36444;DHT22;24692;45.642;13.806;2023-01-10T12:20:04;23.50;99.90
36444;DHT22;24692;45.642;13.806;2023-01-10T12:22:41;23.00;99.90
36444;DHT22;24692;45.642;13.806;2023-01-10T12:27:41;21.30;99.90
36444;DHT22;24692;45.642;13.806;2023-01-10T12:32:52;20.30;99.90
36444;DHT22;24692;45.642;13.806;2023-01-10T12:38:29;20.10;99.90
36444;DHT22;24692;45.642;13.806;2023-01-10T12:41:21;20.40;99.90
36444;DHT22;24692;45.642;13.806;2023-01-10T12:44:15;20.50;99.90
36444;DHT22;24692;45.642;13.806;2023-01-10T12:47:11;20.10;99.90
36444;DHT22;24692;45.642;13.806;2023-01-10T12:52:40;19.80;99.90
36444;DHT22;24692;45.642;13.806;2023-01-10T12:55:21;20.10;99.90
36444;DHT22;24692;45.642;13.806;2023-01-10T12:57:50;19.50;99.90
36444;DHT22;24692;45.642;13.806;2023-01-10T13:00:27;19.50;99.90
36444;DHT22;24692;45.642;13.806;2023-01-10T13:02:55;20.30;99.90
36444;DHT22;24692;45.642;13.806;2023-01-10T13:05:25;19.70;99.90
36444;DHT22;24692;45.642;13.806;2023-01-10T13:07:54;20.00;99.90
36444;DHT22;24692;45.642;13.806;2023-01-10T13:10:23;19.70;99.90
36444;DHT22;24692;45.642;13.806;2023-01-10T13:12:58;20.60;99.90
36444;DHT22;24692;45.642;13.806;2023-01-10T13:15:30;21.40;99.90
36444;DHT22;24692;45.642;13.806;2023-01-10T13:18:02;21.40;99.90
36444;DHT22;24692;45.642;13.806;2023-01-10T13:20:40;21.50;99.90
36444;DHT22;24692;45.642;13.806;2023-01-10T13:23:22;22.10;99.90
36444;DHT22;24692;45.642;13.806;2023-01-10T13:26:04;22.00;99.90
36444;DHT22;24692;45.642;13.806;2023-01-10T13:28:32;21.70;99.90
36444;DHT22;24692;45.642;13.806;2023-01-10T13:31:03;20.60;99.90
36444;DHT22;24692;45.642;13.806;2023-01-10T13:33:51;20.40;99.90
36444;DHT22;24692;45.642;13.806;2023-01-10T13:36:24;20.10;99.90
36444;DHT22;24692;45.642;13.806;2023-01-10T13:38:53;19.80;99.90
36444;DHT22;24692;45.642;13.806;2023-01-10T13:41:20;19.00;99.90
36444;DHT22;24692;45.642;13.806;2023-01-10T13:46:38;18.70;99.90
36444;DHT22;24692;45.642;13.806;2023-01-10T13:51:37;18.60;99.90
36444;DHT22;24692;45.642;13.806;2023-01-10T13:54:29;18.40;99.90
36444;DHT22;24692;45.642;13.806;2023-01-10T13:56:55;18.50;99.90
36444;DHT22;24692;45.642;13.806;2023-01-10T14:02:31;18.50;99.90
36444;DHT22;24692;45.642;13.806;2023-01-10T14:05:03;18.60;99.90
36444;DHT22;24692;45.642;13.806;2023-01-10T14:07:33;18.30;99.90
36444;DHT22;24692;45.642;13.806;2023-01-10T14:10:08;18.90;99.90
36444;DHT22;24692;45.642;13.806;2023-01-10T14:12:49;19.10;99.90
36444;DHT22;24692;45.642;13.806;2023-01-10T14:18:02;19.50;99.90
36444;DHT22;24692;45.642;13.806;2023-01-10T14:20:32;19.40;99.90
36444;DHT22;24692;45.642;13.806;2023-01-10T14:23:05;19.70;99.90
36444;DHT22;24692;45.642;13.806;2023-01-10T14:25:34;18.90;99.90
36444;DHT22;24692;45.642;13.806;2023-01-10T14:28:01;19.30;99.90
36444;DHT22;24692;45.642;13.806;2023-01-10T14:30:35;18.90;99.90
36444;DHT22;24692;45.642;13.806;2023-01-10T14:33:06;18.60;99.90
36444;DHT22;24692;45.642;13.806;2023-01-10T14:35:41;18.60;99.90
36444;DHT22;24692;45.642;13.806;2023-01-10T14:38:22;18.90;99.90
36444;DHT22;24692;45.642;13.806;2023-01-10T14:41:04;18.70;99.90
36444;DHT22;24692;45.642;13.806;2023-01-10T14:43:40;19.10;99.90
36444;DHT22;24692;45.642;13.806;2023-01-10T14:46:21;19.00;99.90
36444;DHT22;24692;45.642;13.806;2023-01-10T14:48:52;19.00;99.90
36444;DHT22;24692;45.642;13.806;2023-01-10T14:51:24;19.20;99.90
36444;DHT22;24692;45.642;13.806;2023-01-10T14:54:01;19.00;99.90
36444;DHT22;24692;45.642;13.806;2023-01-10T14:56:38;19.00;99.90
36444;DHT22;24692;45.642;13.806;2023-01-10T15:01:50;18.90;99.90
36444;DHT22;24692;45.642;13.806;2023-01-10T15:04:19;18.60;99.90
36444;DHT22;24692;45.642;13.806;2023-01-10T15:06:52;18.50;99.90
36444;DHT22;24692;45.642;13.806;2023-01-10T15:09:17;18.20;99.90
36444;DHT22;24692;45.642;13.806;2023-01-10T15:11:44;18.00;99.90
36444;DHT22;24692;45.642;13.806;2023-01-10T15:14:12;17.70;99.90
36444;DHT22;24692;45.642;13.806;2023-01-10T15:16:43;17.60;99.90
36444;DHT22;24692;45.642;13.806;2023-01-10T15:19:16;17.20;99.90
36444;DHT22;24692;45.642;13.806;2023-01-10T15:21:44;16.70;99.90
36444;DHT22;24692;45.642;13.806;2023-01-10T15:24:36;16.40;99.90
36444;DHT22;24692;45.642;13.806;2023-01-10T15:27:12;15.90;99.90
36444;DHT22;24692;45.642;13.806;2023-01-10T15:29:39;15.60;99.90
36444;DHT22;24692;45.642;13.806;2023-01-10T15:32:33;15.20;99.90
36444;DHT22;24692;45.642;13.806;2023-01-10T15:35:00;14.70;99.90
36444;DHT22;24692;45.642;13.806;2023-01-10T15:37:33;14.20;99.90
36444;DHT22;24692;45.642;13.806;2023-01-10T15:40:04;13.80;99.90
36444;DHT22;24692;45.642;13.806;2023-01-10T15:42:30;13.40;99.90
36444;DHT22;24692;45.642;13.806;2023-01-10T15:44:56;13.10;99.90
36444;DHT22;24692;45.642;13.806;2023-01-10T15:50:26;12.40;99.90
36444;DHT22;24692;45.642;13.806;2023-01-10T15:53:05;12.10;99.90
36444;DHT22;24692;45.642;13.806;2023-01-10T15:55:49;11.60;99.90
36444;DHT22;24692;45.642;13.806;2023-01-10T15:58:29;11.30;99.90
36444;DHT22;24692;45.642;13.806;2023-01-10T16:00:57;11.30;99.90
36444;DHT22;24692;45.642;13.806;2023-01-10T16:03:42;11.40;99.90
36444;DHT22;24692;45.642;13.806;2023-01-10T16:08:51;11.30;99.90
36444;DHT22;24692;45.642;13.806;2023-01-10T16:11:39;11.30;99.90
36444;DHT22;24692;45.642;13.806;2023-01-10T16:14:24;11.30;99.90
36444;DHT22;24692;45.642;13.806;2023-01-10T16:16:51;11.20;99.90
36444;DHT22;24692;45.642;13.806;2023-01-10T16:19:17;11.00;99.90
36444;DHT22;24692;45.642;13.806;2023-01-10T16:21:45;10.90;99.90
36444;DHT22;24692;45.642;13.806;2023-01-10T16:24:19;10.80;99.90
36444;DHT22;24692;45.642;13.806;2023-01-10T16:26:46;10.60;99.90
36444;DHT22;24692;45.642;13.806;2023-01-10T16:29:13;10.60;99.90
36444;DHT22;24692;45.642;13.806;2023-01-10T16:31:39;10.60;99.90
36444;DHT22;24692;45.642;13.806;2023-01-10T16:34:05;10.60;99.90
36444;DHT22;24692;45.642;13.806;2023-01-10T16:36:31;10.60;99.90
36444;DHT22;24692;45.642;13.806;2023-01-10T16:38:57;10.70;99.90
36444;DHT22;24692;45.642;13.806;2023-01-10T16:41:22;10.60;99.90
36444;DHT22;24692;45.642;13.806;2023-01-10T16:44:07;10.60;99.90
36444;DHT22;24692;45.642;13.806;2023-01-10T16:46:33;10.50;99.90
36444;DHT22;24692;45.642;13.806;2023-01-10T16:48:58;10.60;99.90
36444;DHT22;24692;45.642;13.806;2023-01-10T16:51:29;10.50;99.90
36444;DHT22;24692;45.642;13.806;2023-01-10T16:53:56;10.10;99.90
36444;DHT22;24692;45.642;13.806;2023-01-10T16:56:31;10.10;99.90
36444;DHT22;24692;45.642;13.806;2023-01-10T16:58:57;10.20;99.90
36444;DHT22;24692;45.642;13.806;2023-01-10T17:01:29;10.20;99.90
36444;DHT22;24692;45.642;13.806;2023-01-10T17:03:55;10.20;99.90
36444;DHT22;24692;45.642;13.806;2023-01-10T17:06:21;10.20;99.90
36444;DHT22;24692;45.642;13.806;2023-01-10T17:08:47;10.20;99.90
36444;DHT22;24692;45.642;13.806;2023-01-10T17:11:32;10.20;99.90
36444;DHT22;24692;45.642;13.806;2023-01-10T17:13:59;10.10;99.90
36444;DHT22;24692;45.642;13.806;2023-01-10T17:16:26;9.90;99.90